Time;durP1;ratioP1;P1;durP2;ratioP2;P2;SDS_P1;SDS_P2;PMS_P1;PMS_P2;Temp;Humidity;BMP_temperature;BMP_pressure;BME280_temperature;BME280_humidity;BME280_pressure;Samples;Min_cycle;Max_cycle;Signal;HPM_P1;HPM_P2
2023/05/03 00:01:49;;;;;;;9.27;4.15;;;12.00;63.10;;;;;;4999698;28;20110;-63
2023/05/03 00:04:17;;;;;;;6.18;4.07;;;12.00;63.30;;;;;;4981885;28;20519;-64
2023/05/03 00:06:43;;;;;;;6.95;4.00;;;11.90;63.50;;;;;;5002769;28;20181;-63
2023/05/03 00:09:09;;;;;;;5.75;4.15;;;11.90;63.40;;;;;;5001180;28;20188;-64
2023/05/03 00:11:35;;;;;;;5.28;4.22;;;11.90;63.60;;;;;;4998504;28;20358;-64
2023/05/03 00:14:01;;;;;;;8.07;4.63;;;11.80;63.70;;;;;;4993263;28;20042;-64
2023/05/03 00:16:27;;;;;;;6.68;4.30;;;11.80;63.80;;;;;;5018081;28;20057;-63
2023/05/03 00:18:52;;;;;;;8.07;4.65;;;11.80;64.00;;;;;;5026357;28;20129;-64
2023/05/03 00:21:18;;;;;;;7.15;4.47;;;11.80;64.00;;;;;;5018670;28;20053;-65
2023/05/03 00:23:44;;;;;;;5.93;4.65;;;11.80;64.10;;;;;;5021603;28;20053;-64
2023/05/03 00:26:09;;;;;;;8.50;4.55;;;11.80;64.20;;;;;;5003014;28;20042;-64
2023/05/03 00:28:35;;;;;;;9.38;5.40;;;11.80;64.30;;;;;;5018620;28;20037;-63
2023/05/03 00:31:08;;;;;;;6.65;4.78;;;11.80;64.40;;;;;;5019720;28;20764;-64
2023/05/03 00:33:36;;;;;;;5.90;4.70;;;11.70;65.00;;;;;;5019911;28;20025;-62
2023/05/03 00:36:09;;;;;;;6.40;4.45;;;11.80;64.80;;;;;;5014138;28;20053;-62
2023/05/03 00:38:35;;;;;;;12.40;4.88;;;11.70;65.10;;;;;;5020961;28;20021;-62
2023/05/03 00:41:02;;;;;;;8.20;4.72;;;11.70;65.20;;;;;;5017826;28;20061;-64
2023/05/03 00:43:28;;;;;;;6.05;4.63;;;11.70;65.10;;;;;;5017454;28;20460;-63
2023/05/03 00:45:54;;;;;;;6.13;4.50;;;11.70;65.10;;;;;;5018211;28;20049;-63
2023/05/03 00:48:20;;;;;;;6.28;4.60;;;11.70;65.20;;;;;;5019521;28;20048;-63
2023/05/03 00:50:46;;;;;;;8.68;5.13;;;11.60;65.50;;;;;;5017420;28;20029;-64
2023/05/03 00:53:12;;;;;;;7.63;4.78;;;11.60;66.30;;;;;;5014951;28;20035;-63
2023/05/03 00:55:39;;;;;;;6.70;4.95;;;11.60;65.70;;;;;;5014967;28;20022;-62
2023/05/03 00:58:05;;;;;;;9.65;4.82;;;11.60;65.70;;;;;;5016147;28;20018;-62
2023/05/03 01:00:31;;;;;;;7.88;4.90;;;11.60;65.80;;;;;;5016689;28;20026;-62
2023/05/03 01:02:57;;;;;;;6.50;5.15;;;11.60;65.60;;;;;;5016210;28;20022;-62
2023/05/03 01:05:27;;;;;;;5.55;4.57;;;11.60;65.60;;;;;;5020005;28;20022;-62
2023/05/03 01:08:15;;;;;;;5.30;4.72;;;11.50;66.00;;;;;;4999493;28;20049;-62
2023/05/03 01:10:51;;;;;;;6.40;5.00;;;11.50;66.60;;;;;;5016528;28;20030;-62
2023/05/03 01:13:37;;;;;;;7.20;5.18;;;11.50;66.70;;;;;;5016353;28;20091;-62
2023/05/03 01:16:48;;;;;;;7.13;5.00;;;11.50;67.50;;;;;;5000890;28;20508;-62
2023/05/03 01:19:41;;;;;;;7.80;5.70;;;11.50;68.00;;;;;;5007363;28;20080;-62
2023/05/03 01:22:36;;;;;;;7.35;4.90;;;11.40;68.40;;;;;;5018005;28;20053;-62
2023/05/03 01:25:10;;;;;;;8.40;5.18;;;11.40;67.20;;;;;;5022261;28;20018;-62
2023/05/03 01:27:37;;;;;;;5.90;4.90;;;11.40;67.50;;;;;;5018422;28;20040;-63
2023/05/03 01:30:08;;;;;;;9.60;5.40;;;11.40;66.80;;;;;;5019674;28;20405;-63
2023/05/03 01:32:49;;;;;;;8.93;4.97;;;11.30;67.30;;;;;;5018349;28;20022;-63
2023/05/03 01:35:25;;;;;;;6.88;5.15;;;11.30;67.80;;;;;;5019020;28;20030;-64
2023/05/03 01:37:52;;;;;;;5.65;4.63;;;11.30;67.10;;;;;;5014811;28;20037;-62
2023/05/03 01:40:23;;;;;;;6.80;5.32;;;11.30;66.90;;;;;;4998037;28;20452;-64
2023/05/03 01:42:50;;;;;;;6.60;4.60;;;11.20;67.90;;;;;;5016348;28;20449;-62
2023/05/03 01:45:17;;;;;;;9.50;5.65;;;11.20;67.20;;;;;;5008711;28;20030;-63
2023/05/03 01:47:43;;;;;;;5.75;5.15;;;11.20;67.40;;;;;;5018350;28;20088;-63
2023/05/03 01:50:09;;;;;;;7.90;5.38;;;11.20;67.80;;;;;;5017019;28;20037;-62
2023/05/03 01:52:34;;;;;;;6.68;5.50;;;11.20;68.30;;;;;;5022182;28;20026;-62
2023/05/03 01:55:00;;;;;;;9.30;5.40;;;11.10;67.80;;;;;;5023879;28;20095;-63
2023/05/03 01:57:26;;;;;;;8.60;5.53;;;11.10;68.00;;;;;;5024988;28;20081;-63
2023/05/03 01:59:52;;;;;;;6.75;5.25;;;11.10;67.80;;;;;;5022655;28;20065;-63
2023/05/03 02:02:17;;;;;;;6.93;5.40;;;11.10;67.80;;;;;;5023287;28;20238;-63
2023/05/03 02:04:43;;;;;;;8.30;5.43;;;11.10;68.40;;;;;;5024069;28;20033;-63
2023/05/03 02:07:08;;;;;;;9.27;5.35;;;11.00;67.70;;;;;;5021180;28;20042;-63
2023/05/03 02:09:34;;;;;;;7.28;4.97;;;11.00;68.20;;;;;;5020425;28;20022;-63
2023/05/03 02:12:00;;;;;;;8.00;5.55;;;11.00;67.90;;;;;;5022887;28;20026;-63
2023/05/03 02:14:25;;;;;;;6.70;5.28;;;11.00;67.60;;;;;;5022241;28;20029;-62
2023/05/03 02:16:54;;;;;;;7.75;5.53;;;11.00;67.80;;;;;;5022094;28;20033;-63
2023/05/03 02:19:20;;;;;;;8.25;5.28;;;10.90;67.80;;;;;;5021482;28;20030;-63
2023/05/03 02:21:46;;;;;;;7.90;5.65;;;10.90;67.80;;;;;;5022722;28;20025;-62
2023/05/03 02:24:12;;;;;;;8.10;5.75;;;10.90;67.90;;;;;;5025295;28;20030;-62
2023/05/03 02:26:37;;;;;;;8.82;5.65;;;10.90;67.80;;;;;;5022085;28;20062;-63
2023/05/03 02:29:03;;;;;;;6.88;5.22;;;10.90;68.00;;;;;;5023256;28;20018;-62
2023/05/03 02:31:28;;;;;;;9.90;5.55;;;11.00;68.10;;;;;;5021858;28;20030;-62
2023/05/03 02:33:54;;;;;;;8.02;5.70;;;11.00;68.00;;;;;;5021031;28;20053;-62
2023/05/03 02:36:20;;;;;;;9.95;4.85;;;11.00;68.10;;;;;;5001903;28;20065;-63
2023/05/03 02:38:46;;;;;;;8.30;6.05;;;11.00;68.00;;;;;;5021493;28;20026;-62
2023/05/03 02:41:12;;;;;;;8.52;6.38;;;11.00;68.00;;;;;;5021524;28;20076;-63
2023/05/03 02:43:37;;;;;;;9.05;5.80;;;11.00;67.90;;;;;;5021541;28;20025;-62
2023/05/03 02:46:03;;;;;;;8.02;6.35;;;11.00;67.90;;;;;;5023991;28;20049;-63
2023/05/03 02:48:29;;;;;;;8.15;6.07;;;11.00;67.80;;;;;;5021351;28;20037;-62
2023/05/03 02:50:54;;;;;;;8.60;5.60;;;11.00;67.80;;;;;;5006530;28;20587;-61
2023/05/03 02:53:20;;;;;;;8.48;5.78;;;11.00;68.50;;;;;;5016653;28;20097;-63
2023/05/03 02:55:46;;;;;;;9.25;6.13;;;11.00;67.70;;;;;;5019564;28;20905;-62
2023/05/03 02:58:12;;;;;;;7.68;6.20;;;11.00;67.70;;;;;;5018469;28;20086;-62
2023/05/03 03:00:38;;;;;;;8.93;6.18;;;10.90;67.60;;;;;;5019239;28;20060;-62
2023/05/03 03:03:03;;;;;;;8.63;6.30;;;10.90;67.60;;;;;;5021850;28;20049;-61
2023/05/03 03:05:29;;;;;;;6.55;5.60;;;10.90;67.40;;;;;;5021078;28;20034;-61
2023/05/03 03:07:55;;;;;;;10.10;5.53;;;10.90;67.40;;;;;;5019253;28;20037;-62
2023/05/03 03:10:21;;;;;;;6.63;5.85;;;10.90;67.30;;;;;;5020353;28;20030;-62
2023/05/03 03:12:46;;;;;;;7.25;5.80;;;10.90;67.20;;;;;;5022234;28;20057;-61
2023/05/03 03:15:12;;;;;;;8.55;5.78;;;10.80;67.10;;;;;;5020817;28;20528;-62
2023/05/03 03:17:38;;;;;;;9.65;6.28;;;10.80;67.10;;;;;;5021008;28;20049;-61
2023/05/03 03:20:10;;;;;;;9.50;6.28;;;10.80;67.10;;;;;;5021537;28;20026;-63
2023/05/03 03:22:36;;;;;;;10.75;6.63;;;10.70;67.30;;;;;;5017992;28;20626;-62
2023/05/03 03:25:03;;;;;;;7.80;6.07;;;10.70;67.40;;;;;;5020020;28;20480;-62
2023/05/03 03:27:29;;;;;;;8.77;6.90;;;10.70;67.50;;;;;;5020136;28;20477;-61
2023/05/03 03:29:55;;;;;;;7.93;6.45;;;10.70;67.60;;;;;;5022221;28;20036;-64
2023/05/03 03:32:21;;;;;;;8.65;6.78;;;10.60;67.60;;;;;;5019682;28;20030;-62
2023/05/03 03:34:47;;;;;;;8.45;6.97;;;10.60;67.70;;;;;;5015473;28;20027;-62
2023/05/03 03:37:12;;;;;;;11.05;6.25;;;10.60;67.90;;;;;;5022085;28;20026;-62
2023/05/03 03:39:39;;;;;;;9.30;5.85;;;10.60;67.90;;;;;;5020462;28;20593;-61
2023/05/03 03:42:06;;;;;;;10.32;6.78;;;10.60;68.10;;;;;;5020203;28;20030;-62
2023/05/03 03:44:31;;;;;;;11.73;6.72;;;10.60;68.10;;;;;;5020696;28;20041;-63
2023/05/03 03:46:57;;;;;;;9.40;6.63;;;10.60;67.90;;;;;;5021184;28;20038;-62
2023/05/03 03:49:22;;;;;;;8.07;6.32;;;10.60;68.30;;;;;;5018849;28;20034;-62
2023/05/03 03:51:48;;;;;;;7.75;6.55;;;10.50;68.30;;;;;;5019699;28;20085;-63
2023/05/03 03:54:14;;;;;;;8.70;6.53;;;10.50;68.40;;;;;;5021396;28;20030;-63
2023/05/03 03:56:39;;;;;;;10.23;6.70;;;10.60;68.50;;;;;;5020334;28;20672;-63
2023/05/03 03:59:05;;;;;;;11.48;6.97;;;10.50;68.60;;;;;;5020071;28;20030;-63
2023/05/03 04:01:31;;;;;;;11.35;6.53;;;10.60;68.70;;;;;;5020053;28;20034;-63
2023/05/03 04:03:56;;;;;;;12.43;7.00;;;10.50;69.30;;;;;;5020131;28;20086;-64
2023/05/03 04:06:22;;;;;;;11.20;6.25;;;10.60;68.70;;;;;;5018658;28;20048;-63
2023/05/03 04:08:48;;;;;;;7.68;6.45;;;10.60;68.70;;;;;;5018438;28;20057;-64
2023/05/03 04:11:14;;;;;;;9.68;6.40;;;10.60;68.70;;;;;;5009113;28;20058;-63
2023/05/03 04:13:39;;;;;;;9.13;7.13;;;10.60;68.80;;;;;;5018361;28;20114;-63
2023/05/03 04:16:06;;;;;;;10.85;6.60;;;10.70;68.80;;;;;;5013406;28;20069;-63
2023/05/03 04:18:32;;;;;;;17.45;6.95;;;10.70;68.80;;;;;;5019186;28;20532;-63
2023/05/03 04:20:57;;;;;;;9.10;6.63;;;10.70;68.90;;;;;;5018288;28;20026;-64
2023/05/03 04:23:23;;;;;;;9.35;6.13;;;10.70;68.80;;;;;;5020177;28;20052;-62
2023/05/03 04:25:49;;;;;;;10.80;6.63;;;10.70;68.80;;;;;;5016637;28;20022;-61
2023/05/03 04:28:14;;;;;;;12.02;7.22;;;10.70;68.80;;;;;;5021271;28;20496;-63
2023/05/03 04:30:43;;;;;;;9.35;7.03;;;10.70;68.90;;;;;;5020070;28;20555;-63
2023/05/03 04:33:09;;;;;;;10.57;6.90;;;10.70;68.90;;;;;;5018126;28;20082;-64
2023/05/03 04:35:35;;;;;;;10.38;6.80;;;10.80;68.80;;;;;;5019335;28;20057;-64
2023/05/03 04:38:01;;;;;;;12.57;6.47;;;10.80;68.90;;;;;;5021190;28;20036;-64
2023/05/03 04:40:27;;;;;;;9.07;6.63;;;10.80;68.90;;;;;;5018329;28;20049;-64
2023/05/03 04:42:53;;;;;;;9.77;6.88;;;10.80;69.00;;;;;;5019245;28;20018;-63
2023/05/03 04:45:19;;;;;;;11.07;6.85;;;10.80;68.90;;;;;;5019715;28;20571;-62
2023/05/03 04:47:46;;;;;;;9.73;6.60;;;10.80;68.90;;;;;;5017813;28;20030;-62
2023/05/03 04:50:12;;;;;;;9.85;6.90;;;10.90;69.00;;;;;;5023102;28;20029;-62
2023/05/03 04:52:38;;;;;;;12.07;8.50;;;10.90;69.00;;;;;;5016783;28;20493;-63
2023/05/03 04:55:04;;;;;;;9.75;6.95;;;10.90;69.00;;;;;;5020274;28;20033;-62
2023/05/03 04:57:31;;;;;;;11.45;7.07;;;11.00;69.00;;;;;;5017767;28;20097;-62
2023/05/03 04:59:57;;;;;;;8.20;6.82;;;11.00;69.10;;;;;;5018923;28;20030;-62
2023/05/03 05:02:22;;;;;;;10.57;6.65;;;11.00;69.10;;;;;;5016572;28;20029;-62
2023/05/03 05:04:48;;;;;;;10.77;6.78;;;11.10;69.00;;;;;;5019013;28;20034;-62
2023/05/03 05:07:14;;;;;;;9.38;6.78;;;11.10;69.10;;;;;;5019065;28;20049;-63
2023/05/03 05:09:40;;;;;;;13.40;7.07;;;11.20;69.00;;;;;;5020294;28;20025;-62
2023/05/03 05:12:06;;;;;;;9.27;6.55;;;11.20;69.00;;;;;;5019544;28;20075;-62
2023/05/03 05:14:32;;;;;;;11.60;7.13;;;11.30;68.90;;;;;;5018700;28;20099;-62
2023/05/03 05:16:58;;;;;;;9.10;6.78;;;11.40;68.90;;;;;;5016887;28;20034;-62
2023/05/03 05:19:24;;;;;;;9.13;6.72;;;11.40;68.90;;;;;;5019696;28;20026;-63
2023/05/03 05:21:51;;;;;;;10.90;7.15;;;11.50;68.70;;;;;;5018965;28;20026;-64
2023/05/03 05:24:18;;;;;;;11.45;7.15;;;11.60;68.70;;;;;;5021587;28;20037;-63
2023/05/03 05:26:44;;;;;;;11.57;7.10;;;11.60;68.60;;;;;;4999296;28;20060;-61
2023/05/03 05:29:09;;;;;;;9.25;7.47;;;11.70;68.50;;;;;;5017879;28;20489;-63
2023/05/03 05:31:35;;;;;;;9.70;7.25;;;11.70;68.40;;;;;;5020504;28;20030;-63
2023/05/03 05:34:02;;;;;;;10.02;7.35;;;11.80;68.20;;;;;;5019625;28;20052;-65
2023/05/03 05:36:29;;;;;;;9.48;6.75;;;11.80;67.90;;;;;;5020076;28;20080;-64
2023/05/03 05:38:55;;;;;;;8.77;6.80;;;11.80;68.40;;;;;;5017873;28;20034;-63
2023/05/03 05:41:20;;;;;;;12.35;6.85;;;11.90;67.50;;;;;;5019881;28;20050;-63
2023/05/03 05:43:47;;;;;;;10.75;7.97;;;11.90;67.50;;;;;;5017242;28;20018;-63
2023/05/03 05:46:12;;;;;;;12.32;7.28;;;12.00;67.60;;;;;;5019140;28;20042;-64
2023/05/03 05:48:38;;;;;;;10.95;7.65;;;12.00;67.40;;;;;;5018347;28;20046;-63
2023/05/03 05:51:04;;;;;;;10.80;7.25;;;12.00;67.50;;;;;;5018204;28;20049;-63
2023/05/03 05:53:30;;;;;;;9.80;6.82;;;12.10;67.10;;;;;;5019585;28;20037;-64
2023/05/03 05:55:56;;;;;;;11.95;7.93;;;12.10;67.00;;;;;;5018939;28;20030;-63
2023/05/03 05:58:21;;;;;;;10.50;6.90;;;12.10;67.00;;;;;;5013831;28;20030;-64
2023/05/03 06:00:48;;;;;;;10.27;7.40;;;12.10;66.90;;;;;;5019596;28;20026;-64
2023/05/03 06:03:14;;;;;;;9.40;7.00;;;12.10;67.10;;;;;;5016084;28;20089;-66
2023/05/03 06:05:40;;;;;;;10.90;7.68;;;12.10;67.00;;;;;;5017140;28;20030;-65
2023/05/03 06:08:06;;;;;;;10.73;7.50;;;12.10;67.10;;;;;;5017480;28;20029;-65
2023/05/03 06:10:32;;;;;;;12.02;6.90;;;12.10;67.30;;;;;;5018504;28;20115;-65
2023/05/03 06:12:58;;;;;;;11.55;7.13;;;12.10;67.40;;;;;;5017972;28;20089;-65
2023/05/03 06:15:25;;;;;;;10.60;7.45;;;12.10;67.60;;;;;;4995181;28;20061;-63
2023/05/03 06:17:50;;;;;;;12.15;7.47;;;12.20;67.50;;;;;;5019442;28;20021;-64
2023/05/03 06:20:17;;;;;;;9.93;7.82;;;12.20;67.40;;;;;;5016409;28;20092;-63
2023/05/03 06:22:42;;;;;;;11.38;7.80;;;12.30;67.60;;;;;;5018279;28;20488;-64
2023/05/03 06:25:09;;;;;;;8.40;6.93;;;12.30;67.40;;;;;;5023124;28;20041;-64
2023/05/03 06:27:37;;;;;;;11.00;7.50;;;12.40;67.30;;;;;;5017789;28;20033;-63
2023/05/03 06:30:03;;;;;;;14.82;6.97;;;12.40;67.30;;;;;;5017745;28;20026;-64
2023/05/03 06:32:28;;;;;;;9.60;7.13;;;12.40;67.10;;;;;;5018250;28;20037;-63
2023/05/03 06:34:54;;;;;;;12.35;7.22;;;12.50;67.10;;;;;;5014574;28;20026;-65
2023/05/03 06:37:21;;;;;;;11.55;7.80;;;12.50;67.10;;;;;;5023721;28;20030;-65
2023/05/03 06:39:49;;;;;;;16.48;9.95;;;12.60;67.20;;;;;;5020808;28;20038;-63
2023/05/03 06:42:14;;;;;;;13.25;9.02;;;12.70;67.40;;;;;;5021975;28;20037;-63
2023/05/03 06:44:41;;;;;;;15.10;9.75;;;12.70;67.40;;;;;;5022382;28;20030;-63
2023/05/03 06:47:07;;;;;;;16.00;10.02;;;12.80;67.60;;;;;;4995863;28;20034;-64
2023/05/03 06:49:32;;;;;;;16.83;9.48;;;12.90;67.50;;;;;;5005018;28;20037;-63
2023/05/03 06:51:58;;;;;;;15.45;9.63;;;12.90;67.30;;;;;;5017746;28;20014;-65
2023/05/03 06:54:24;;;;;;;15.05;9.15;;;13.00;67.30;;;;;;5017610;28;20030;-64
2023/05/03 06:56:49;;;;;;;12.65;8.90;;;13.00;67.20;;;;;;5021342;28;20089;-64
2023/05/03 06:59:15;;;;;;;14.40;9.15;;;13.10;67.10;;;;;;5022587;28;20030;-64
2023/05/03 07:01:41;;;;;;;11.35;8.40;;;13.10;67.00;;;;;;5021802;28;20028;-64
2023/05/03 07:04:06;;;;;;;13.57;9.05;;;13.10;66.90;;;;;;5019192;28;20042;-63
2023/05/03 07:06:32;;;;;;;15.55;9.30;;;13.10;67.00;;;;;;5016283;28;20504;-63
2023/05/03 07:08:58;;;;;;;14.90;9.82;;;13.20;66.90;;;;;;5012224;28;20668;-64
2023/05/03 07:11:23;;;;;;;16.38;11.05;;;13.20;66.70;;;;;;5022196;28;20180;-63
2023/05/03 07:14:42;;;;;;;15.52;10.02;;;13.20;66.70;;;;;;5023378;28;20094;-64
2023/05/03 07:17:08;;;;;;;14.77;10.18;;;13.20;67.00;;;;;;5021277;28;20049;-64
2023/05/03 07:19:35;;;;;;;15.00;10.20;;;13.30;66.70;;;;;;5018474;28;20049;-64
2023/05/03 07:22:02;;;;;;;14.52;9.80;;;13.30;66.90;;;;;;5026832;28;20018;-65
2023/05/03 07:24:28;;;;;;;16.23;10.15;;;13.30;67.00;;;;;;5024670;28;20026;-64
2023/05/03 07:26:54;;;;;;;14.82;10.13;;;13.40;67.00;;;;;;5010635;28;20057;-64
2023/05/03 07:29:20;;;;;;;16.73;9.25;;;13.50;66.90;;;;;;5021245;28;20060;-63
2023/05/03 07:31:46;;;;;;;13.55;9.95;;;13.50;66.70;;;;;;5015994;28;20088;-63
2023/05/03 07:34:12;;;;;;;13.02;9.55;;;13.60;66.50;;;;;;5020107;28;20045;-64
2023/05/03 07:36:38;;;;;;;14.15;9.52;;;13.60;66.50;;;;;;5019600;28;20023;-65
2023/05/03 07:39:04;;;;;;;14.90;9.90;;;13.70;66.70;;;;;;5020006;28;20022;-64
2023/05/03 07:41:30;;;;;;;12.52;8.75;;;13.80;66.60;;;;;;5019904;28;20096;-63
2023/05/03 07:43:56;;;;;;;12.35;8.85;;;13.80;66.40;;;;;;5019677;28;20022;-64
2023/05/03 07:46:22;;;;;;;14.18;8.90;;;13.90;66.30;;;;;;5019599;28;20045;-64
2023/05/03 07:48:48;;;;;;;11.88;8.93;;;14.00;66.20;;;;;;5019722;28;20033;-64
2023/05/03 07:51:14;;;;;;;10.93;8.88;;;14.00;66.00;;;;;;5020973;28;20094;-63
2023/05/03 07:53:40;;;;;;;11.85;8.98;;;14.10;65.90;;;;;;5022883;28;20061;-64
2023/05/03 07:56:06;;;;;;;12.90;9.20;;;14.20;66.00;;;;;;5018129;28;20086;-63
2023/05/03 07:58:32;;;;;;;12.90;9.15;;;14.20;65.90;;;;;;5019987;28;20058;-63
2023/05/03 08:00:58;;;;;;;11.18;9.02;;;14.20;65.70;;;;;;5015752;28;20036;-64
2023/05/03 08:03:23;;;;;;;13.00;8.77;;;14.30;65.70;;;;;;5019847;28;20037;-64
2023/05/03 08:05:49;;;;;;;11.85;8.35;;;14.30;65.80;;;;;;5019494;28;20416;-66
2023/05/03 08:08:15;;;;;;;10.70;8.48;;;14.40;65.70;;;;;;5019643;28;20034;-65
2023/05/03 08:10:41;;;;;;;10.68;7.90;;;14.40;65.70;;;;;;5015119;28;20049;-65
2023/05/03 08:13:07;;;;;;;10.18;8.18;;;14.50;65.60;;;;;;5018996;28;20164;-66
2023/05/03 08:15:32;;;;;;;9.75;8.30;;;14.60;65.50;;;;;;5023036;28;20034;-65
2023/05/03 08:17:58;;;;;;;12.75;8.63;;;14.70;65.50;;;;;;5000122;28;20045;-66
2023/05/03 08:20:26;;;;;;;10.32;8.40;;;14.80;65.60;;;;;;5010884;28;20092;-64
2023/05/03 08:26:13;;;;;;;9.98;7.72;;;14.90;65.50;;;;;;4022032;23;20080;-58
2023/05/03 08:28:39;;;;;;;9.38;8.02;;;15.00;64.90;;;;;;5041321;28;20021;-58
2023/05/03 08:31:06;;;;;;;11.43;8.65;;;15.10;64.90;;;;;;5042639;28;20155;-60
2023/05/03 08:33:32;;;;;;;15.32;11.07;;;15.10;64.80;;;;;;5044803;28;20428;-58
2023/05/03 08:35:58;;;;;;;11.63;10.30;;;15.20;64.70;;;;;;5042491;28;20162;-59
2023/05/03 08:38:23;;;;;;;15.35;10.35;;;15.30;64.50;;;;;;5045354;28;20044;-58
2023/05/03 08:40:53;;;;;;;19.70;9.38;;;15.40;64.50;;;;;;5027088;28;20033;-58
2023/05/03 08:43:20;;;;;;;9.88;8.57;;;15.40;64.30;;;;;;5045536;28;20018;-59
2023/05/03 08:45:46;;;;;;;13.25;9.38;;;15.50;64.20;;;;;;5037146;28;20025;-58
2023/05/03 08:48:13;;;;;;;10.27;8.40;;;15.60;64.00;;;;;;5045474;28;20483;-58
2023/05/03 08:50:41;;;;;;;10.70;8.95;;;15.70;63.80;;;;;;5042989;28;20048;-58
2023/05/03 08:53:10;;;;;;;9.75;8.45;;;15.80;63.80;;;;;;5037595;28;20032;-58
2023/05/03 08:55:39;;;;;;;11.27;9.25;;;15.80;63.70;;;;;;5036769;28;20057;-58
2023/05/03 08:58:11;;;;;;;12.13;9.07;;;15.90;63.40;;;;;;5043255;28;20034;-58
2023/05/03 09:00:37;;;;;;;10.07;8.43;;;15.90;63.40;;;;;;5041103;28;20092;-59
2023/05/03 09:03:03;;;;;;;9.95;8.27;;;16.00;63.30;;;;;;5040183;28;20493;-58
2023/05/03 09:05:30;;;;;;;10.50;8.57;;;16.10;63.10;;;;;;5039714;28;20041;-57
2023/05/03 09:08:08;;;;;;;9.43;7.88;;;16.20;63.00;;;;;;5040788;28;20038;-59
2023/05/03 09:10:37;;;;;;;10.30;8.02;;;16.20;62.50;;;;;;4945558;28;20021;-59
2023/05/03 09:13:02;;;;;;;9.77;7.30;;;16.30;62.60;;;;;;5035230;28;20036;-58
2023/05/03 09:15:29;;;;;;;8.68;7.45;;;16.40;62.50;;;;;;5039369;28;20057;-58
2023/05/03 09:18:16;;;;;;;8.82;7.88;;;16.50;62.40;;;;;;5031584;28;20037;-58
2023/05/03 09:20:52;;;;;;;9.77;7.68;;;16.60;61.90;;;;;;5021301;28;20046;-58
2023/05/03 09:23:30;;;;;;;10.20;7.25;;;16.70;62.20;;;;;;5033108;28;20030;-58
2023/05/03 09:25:57;;;;;;;9.45;6.60;;;16.80;61.80;;;;;;5035770;28;20046;-58
2023/05/03 09:28:24;;;;;;;9.35;6.75;;;16.90;62.30;;;;;;5037616;28;20060;-58
2023/05/03 09:31:04;;;;;;;7.40;5.93;;;17.00;61.90;;;;;;5034772;28;20551;-58
2023/05/03 09:33:30;;;;;;;7.30;6.05;;;17.30;60.90;;;;;;5032919;28;20064;-58
2023/05/03 09:35:58;;;;;;;7.43;6.03;;;17.20;60.80;;;;;;5035562;28;20030;-58
2023/05/03 09:38:28;;;;;;;19.55;13.00;;;17.30;60.20;;;;;;5035644;28;20032;-59
2023/05/03 09:40:54;;;;;;;10.00;7.03;;;17.30;60.40;;;;;;5030883;28;20391;-58
2023/05/03 09:43:20;;;;;;;6.90;6.10;;;17.40;59.70;;;;;;5038566;28;20056;-58
2023/05/03 09:45:45;;;;;;;8.63;6.18;;;17.40;58.90;;;;;;5035426;28;20507;-58
2023/05/03 09:48:12;;;;;;;7.97;6.07;;;17.40;59.20;;;;;;5036854;28;20092;-57
2023/05/03 09:50:38;;;;;;;7.72;6.07;;;17.40;59.10;;;;;;5035143;28;20076;-58
2023/05/03 09:53:06;;;;;;;6.28;5.68;;;17.50;59.00;;;;;;5035386;28;20479;-57
2023/05/03 09:55:33;;;;;;;5.72;5.10;;;17.60;58.80;;;;;;5038965;28;20028;-58
2023/05/03 09:58:00;;;;;;;8.30;5.55;;;17.60;59.00;;;;;;5036790;28;20041;-59
2023/05/03 10:00:26;;;;;;;5.82;5.28;;;17.70;57.90;;;;;;5037685;28;20030;-59
2023/05/03 10:02:56;;;;;;;8.20;5.53;;;17.70;58.40;;;;;;5034894;28;20025;-59
2023/05/03 10:05:23;;;;;;;6.22;5.32;;;17.80;58.70;;;;;;5034725;28;20060;-59
2023/05/03 10:07:55;;;;;;;6.93;5.18;;;17.90;58.80;;;;;;5040835;28;20046;-60
2023/05/03 10:10:22;;;;;;;9.75;5.55;;;18.00;59.10;;;;;;5032878;28;20017;-59
2023/05/03 10:12:48;;;;;;;12.75;5.13;;;18.20;58.00;;;;;;5037724;28;20029;-59
2023/05/03 10:15:15;;;;;;;6.03;4.63;;;18.40;57.80;;;;;;5042593;28;20026;-58
2023/05/03 10:17:42;;;;;;;6.53;5.25;;;18.50;57.70;;;;;;5036824;28;20026;-59
2023/05/03 10:20:23;;;;;;;5.85;4.70;;;18.70;58.00;;;;;;5038659;28;20026;-59
2023/05/03 10:23:05;;;;;;;8.77;5.05;;;18.90;57.40;;;;;;5022917;28;20025;-59
2023/05/03 10:25:31;;;;;;;10.55;6.95;;;19.10;57.20;;;;;;5038405;28;20045;-60
2023/05/03 10:28:07;;;;;;;7.72;5.88;;;19.30;57.90;;;;;;5042884;28;20045;-59
2023/05/03 10:30:38;;;;;;;9.90;7.35;;;19.50;57.40;;;;;;5030315;28;20052;-59
2023/05/03 10:33:13;;;;;;;6.93;5.65;;;19.70;56.60;;;;;;5036668;28;20036;-59
2023/05/03 10:35:42;;;;;;;7.80;5.25;;;19.90;56.20;;;;;;5025452;28;20029;-59
2023/05/03 10:38:24;;;;;;;6.60;5.03;;;20.00;56.30;;;;;;5023570;28;20036;-61
2023/05/03 10:40:50;;;;;;;6.28;4.68;;;20.20;56.20;;;;;;5040015;28;20043;-59
2023/05/03 10:43:29;;;;;;;31.90;21.60;;;20.40;55.90;;;;;;5041891;28;20022;-59
2023/05/03 10:45:58;;;;;;;7.88;6.72;;;20.60;54.50;;;;;;5041632;28;20026;-59
2023/05/03 10:48:24;;;;;;;7.10;5.15;;;20.70;54.90;;;;;;5040274;28;20034;-59
2023/05/03 10:50:51;;;;;;;6.38;4.75;;;20.90;54.30;;;;;;5040742;28;20104;-60
2023/05/03 10:53:36;;;;;;;6.93;4.85;;;21.00;54.30;;;;;;5042601;28;20030;-59
2023/05/03 10:56:10;;;;;;;5.47;4.57;;;21.20;52.10;;;;;;5040717;28;20522;-59
2023/05/03 10:58:43;;;;;;;5.43;4.43;;;21.40;53.20;;;;;;5038291;28;20049;-59
2023/05/03 11:01:11;;;;;;;12.60;8.52;;;21.50;53.20;;;;;;5040431;28;20036;-60
2023/05/03 11:04:08;;;;;;;6.28;5.28;;;21.70;53.00;;;;;;5038441;28;20037;-59
2023/05/03 11:06:36;;;;;;;9.57;5.88;;;21.80;52.10;;;;;;4962367;28;20052;-60
2023/05/03 11:09:05;;;;;;;7.32;5.13;;;22.00;52.80;;;;;;4960336;28;20043;-60
2023/05/03 11:11:31;;;;;;;4.68;4.22;;;22.20;52.00;;;;;;4959104;28;20035;-60
2023/05/03 11:13:57;;;;;;;5.45;4.22;;;22.30;52.10;;;;;;4965447;28;20027;-61
2023/05/03 11:16:24;;;;;;;8.70;4.78;;;22.40;51.30;;;;;;4955551;29;20039;-59
2023/05/03 11:18:50;;;;;;;5.43;3.85;;;22.50;50.90;;;;;;4958712;28;20071;-59
2023/05/03 11:21:17;;;;;;;6.22;4.50;;;22.70;50.10;;;;;;4953774;28;20035;-59
2023/05/03 11:23:44;;;;;;;4.93;3.97;;;22.70;49.20;;;;;;4956303;28;20042;-61
2023/05/03 11:26:10;;;;;;;4.63;4.00;;;22.70;50.00;;;;;;4959825;28;20035;-59
2023/05/03 11:28:40;;;;;;;5.18;4.25;;;22.80;49.40;;;;;;4956901;28;20048;-61
2023/05/03 11:31:07;;;;;;;5.20;4.30;;;22.90;48.50;;;;;;4962237;28;20035;-60
2023/05/03 11:33:34;;;;;;;5.45;4.18;;;23.00;48.30;;;;;;4954402;28;20036;-60
2023/05/03 11:36:05;;;;;;;5.55;4.57;;;23.10;48.00;;;;;;4963539;28;20087;-60
2023/05/03 11:38:32;;;;;;;5.03;4.18;;;23.20;47.50;;;;;;4965384;28;20047;-60
2023/05/03 11:40:59;;;;;;;6.85;4.45;;;23.30;48.40;;;;;;4958413;28;20113;-59
2023/05/03 11:43:25;;;;;;;7.55;4.22;;;23.30;47.70;;;;;;4996633;28;20033;-60
2023/05/03 11:45:56;;;;;;;5.45;4.00;;;23.50;47.30;;;;;;5037654;28;20029;-61
2023/05/03 11:48:22;;;;;;;5.13;4.32;;;23.60;46.70;;;;;;5019461;28;20132;-60
2023/05/03 11:50:50;;;;;;;7.85;4.10;;;23.70;46.40;;;;;;5037096;28;20503;-59
2023/05/03 11:53:17;;;;;;;4.72;4.13;;;23.70;45.90;;;;;;5023335;28;20099;-60
2023/05/03 11:55:47;;;;;;;5.20;4.13;;;23.70;45.60;;;;;;5028866;28;20044;-60
2023/05/03 11:58:18;;;;;;;5.00;3.95;;;23.70;45.30;;;;;;5041005;28;20044;-59
2023/05/03 12:00:46;;;;;;;4.35;3.50;;;23.60;45.30;;;;;;5017402;28;20026;-61
2023/05/03 12:03:28;;;;;;;4.15;3.58;;;23.50;45.40;;;;;;5040000;28;20030;-60
2023/05/03 12:05:55;;;;;;;4.65;3.10;;;23.40;44.50;;;;;;5034165;28;20480;-60
2023/05/03 12:08:27;;;;;;;6.63;3.92;;;23.30;45.00;;;;;;5034172;28;20040;-60
2023/05/03 12:10:54;;;;;;;4.75;3.72;;;23.20;44.50;;;;;;5038843;28;20025;-59
2023/05/03 12:13:31;;;;;;;7.28;4.38;;;23.00;45.30;;;;;;5038173;28;20036;-60
2023/05/03 12:16:01;;;;;;;5.03;3.97;;;22.90;45.40;;;;;;5040355;28;20040;-59
2023/05/03 12:18:27;;;;;;;4.43;3.83;;;22.90;46.40;;;;;;5038731;28;20032;-59
2023/05/03 12:20:57;;;;;;;5.10;3.65;;;22.90;46.10;;;;;;5039706;28;20037;-59
2023/05/03 12:23:25;;;;;;;4.82;4.15;;;22.90;45.10;;;;;;5009933;28;20026;-60
2023/05/03 12:25:52;;;;;;;5.30;4.03;;;22.90;44.50;;;;;;5039003;28;20021;-60
2023/05/03 12:28:18;;;;;;;4.40;3.45;;;22.80;44.20;;;;;;5040840;28;20034;-59
2023/05/03 12:30:44;;;;;;;5.13;3.65;;;22.60;44.70;;;;;;5038528;28;20036;-59
2023/05/03 12:33:11;;;;;;;3.45;3.15;;;22.40;45.00;;;;;;5038640;28;20050;-60
2023/05/03 12:35:37;;;;;;;5.45;3.40;;;22.30;45.00;;;;;;5033387;28;20071;-60
2023/05/03 12:38:04;;;;;;;4.50;3.65;;;22.10;45.20;;;;;;5036122;28;20028;-59
2023/05/03 12:40:29;;;;;;;5.07;3.65;;;22.00;45.20;;;;;;5030187;28;20040;-59
2023/05/03 12:42:55;;;;;;;4.20;3.53;;;21.90;45.70;;;;;;5039058;28;20029;-59
2023/05/03 12:45:21;;;;;;;10.32;3.80;;;21.80;46.00;;;;;;5041042;28;20073;-59
2023/05/03 12:47:46;;;;;;;4.43;4.00;;;21.80;46.80;;;;;;5040759;28;20037;-60
2023/05/03 12:50:12;;;;;;;4.78;4.18;;;21.90;47.10;;;;;;5038638;28;20033;-59